createdAt,value
2018-11-13T00:02:26.750Z,11.10
2018-11-13T00:05:00.537Z,11.10
2018-11-13T00:07:35.351Z,11.10
2018-11-13T00:10:10.047Z,11.10
2018-11-13T00:12:44.947Z,11.10
2018-11-13T00:15:18.819Z,11.10
2018-11-13T00:17:53.751Z,11.10
2018-11-13T00:20:27.531Z,11.10
2018-11-13T00:23:02.419Z,11.10
2018-11-13T00:25:36.221Z,11.00
2018-11-13T00:28:10.092Z,11.00
2018-11-13T00:30:43.840Z,11.00
2018-11-13T00:33:19.682Z,11.00
2018-11-13T00:35:53.532Z,11.00
2018-11-13T00:38:29.430Z,11.10
2018-11-13T00:41:03.167Z,11.00
2018-11-13T00:43:38.045Z,11.00
2018-11-13T00:46:11.794Z,11.10
2018-11-13T00:48:45.681Z,11.10
2018-11-13T00:51:19.485Z,11.10
2018-11-13T00:53:55.433Z,11.10
2018-11-13T00:56:29.189Z,11.10
2018-11-13T00:59:04.152Z,11.10
2018-11-13T01:01:37.958Z,11.00
2018-11-13T01:04:13.844Z,11.00
2018-11-13T01:06:47.608Z,11.00
2018-11-13T01:09:21.493Z,11.00
2018-11-13T01:11:55.437Z,11.00
2018-11-13T01:14:31.333Z,11.00
2018-11-13T01:17:05.154Z,11.00
2018-11-13T01:19:39.070Z,11.00
2018-11-13T01:22:12.824Z,11.00
2018-11-13T01:24:47.691Z,11.00
2018-11-13T01:27:21.477Z,11.00
2018-11-13T01:29:58.161Z,11.00
2018-11-13T01:32:31.896Z,11.00
2018-11-13T01:35:08.514Z,11.00
2018-11-13T01:37:42.336Z,11.00
2018-11-13T01:40:20.625Z,11.00
2018-11-13T01:42:54.356Z,11.00
2018-11-13T01:45:31.441Z,11.00
2018-11-13T01:48:05.309Z,11.00
2018-11-13T01:50:41.320Z,11.00
2018-11-13T01:53:15.063Z,11.00
2018-11-13T01:55:49.928Z,10.90
2018-11-13T01:58:23.697Z,10.90
2018-11-13T02:00:58.570Z,10.90
2018-11-13T02:03:32.340Z,10.90
2018-11-13T02:06:06.801Z,10.90
2018-11-13T02:08:40.561Z,10.90
2018-11-13T02:11:14.401Z,10.80
2018-11-13T02:13:48.148Z,10.80
2018-11-13T02:16:22.055Z,10.80
2018-11-13T02:18:55.793Z,10.70
2018-11-13T02:21:29.808Z,10.70
2018-11-13T02:24:03.588Z,10.70
2018-11-13T02:26:38.473Z,10.60
2018-11-13T02:29:12.297Z,10.60
2018-11-13T02:31:47.120Z,10.60
2018-11-13T02:34:20.892Z,10.60
2018-11-13T02:36:54.713Z,10.60
2018-11-13T02:39:28.489Z,10.60
2018-11-13T02:42:02.366Z,10.60
2018-11-13T02:44:36.293Z,10.60
2018-11-13T02:47:10.137Z,10.60
2018-11-13T02:49:44.040Z,10.60
2018-11-13T02:52:18.067Z,10.60
2018-11-13T02:54:51.862Z,10.60
2018-11-13T02:57:27.808Z,10.60
2018-11-13T03:00:01.620Z,10.60
2018-11-13T03:02:37.557Z,10.60
2018-11-13T03:05:14.055Z,10.60
2018-11-13T03:07:48.908Z,10.50
2018-11-13T03:10:22.732Z,10.50
2018-11-13T03:12:56.641Z,10.50
2018-11-13T03:15:30.414Z,10.50
2018-11-13T03:18:05.291Z,10.40
2018-11-13T03:20:39.390Z,10.40
2018-11-13T03:23:13.294Z,10.30
2018-11-13T03:25:47.059Z,10.30
2018-11-13T03:28:20.909Z,10.30
2018-11-13T03:30:54.748Z,10.20
2018-11-13T03:33:29.778Z,10.20
2018-11-13T03:36:03.528Z,10.20
2018-11-13T03:38:38.414Z,10.20
2018-11-13T03:41:12.165Z,10.20
2018-11-13T03:43:50.086Z,10.20
2018-11-13T03:46:23.819Z,10.10
2018-11-13T03:48:57.699Z,10.10
2018-11-13T03:51:31.467Z,10.10
2018-11-13T03:54:06.910Z,10.10
2018-11-13T03:56:40.663Z,10.10
2018-11-13T04:02:13.833Z,10.00
2018-11-13T04:04:47.623Z,10.00
2018-11-13T04:07:28.556Z,10.00
2018-11-13T04:10:02.344Z,10.00
2018-11-13T04:12:42.603Z,9.90
2018-11-13T04:15:17.742Z,9.90
2018-11-13T04:17:52.645Z,10.00
2018-11-13T04:20:26.443Z,9.90
2018-11-13T04:23:04.773Z,9.90
2018-11-13T04:25:38.622Z,9.90
2018-11-13T04:28:16.970Z,9.80
2018-11-13T04:30:50.961Z,9.80
2018-11-13T04:33:29.230Z,9.80
2018-11-13T04:36:03.010Z,9.80
2018-11-13T04:38:47.259Z,9.80
2018-11-13T04:41:21.054Z,9.80
2018-11-13T04:44:00.481Z,9.80
2018-11-13T04:46:34.268Z,9.70
2018-11-13T04:49:08.253Z,9.70
2018-11-13T04:51:42.089Z,9.70
2018-11-13T04:54:28.121Z,9.70
2018-11-13T04:57:01.938Z,9.70
2018-11-13T04:59:47.993Z,9.70
2018-11-13T05:02:21.830Z,9.70
2018-11-13T05:04:57.647Z,9.70
2018-11-13T05:07:31.443Z,9.70
2018-11-13T05:10:22.191Z,9.70
2018-11-13T05:12:55.967Z,9.70
2018-11-13T05:15:34.459Z,9.70
2018-11-13T05:18:08.287Z,9.60
2018-11-13T05:20:43.183Z,9.60
2018-11-13T05:23:17.080Z,9.60
2018-11-13T05:25:52.065Z,9.70
2018-11-13T05:28:25.911Z,9.60
2018-11-13T05:31:04.171Z,9.60
2018-11-13T05:33:38.019Z,9.60
2018-11-13T05:36:12.865Z,9.60
2018-11-13T05:38:46.695Z,9.50
2018-11-13T05:41:22.028Z,9.50
2018-11-13T05:43:55.863Z,9.50
2018-11-13T05:46:31.699Z,9.50
2018-11-13T05:49:05.973Z,9.40
2018-11-13T05:51:45.055Z,9.40
2018-11-13T05:54:18.878Z,9.40
2018-11-13T05:56:53.880Z,9.30
2018-11-13T05:59:27.646Z,9.30
2018-11-13T06:02:02.642Z,9.30
2018-11-13T06:04:36.555Z,9.30
2018-11-13T06:07:10.861Z,9.30
2018-11-13T06:09:44.660Z,9.30
2018-11-13T06:12:19.001Z,9.30
2018-11-13T06:14:52.835Z,9.30
2018-11-13T06:17:28.787Z,9.30
2018-11-13T06:20:03.181Z,9.30
2018-11-13T06:22:37.554Z,9.20
2018-11-13T06:25:13.169Z,9.20
2018-11-13T06:27:49.933Z,9.20
2018-11-13T06:30:24.871Z,9.20
2018-11-13T06:32:59.136Z,9.10
2018-11-13T06:35:32.938Z,9.10
2018-11-13T06:38:06.865Z,9.10
2018-11-13T06:40:40.726Z,9.10
2018-11-13T06:43:15.098Z,9.10
2018-11-13T06:45:48.951Z,9.20
2018-11-13T06:48:23.841Z,9.10
2018-11-13T06:50:57.706Z,9.10
2018-11-13T06:53:42.865Z,9.10
2018-11-13T06:56:21.090Z,9.10
2018-11-13T06:58:54.858Z,9.10
2018-11-13T07:01:29.716Z,9.10
2018-11-13T07:04:03.486Z,9.10
2018-11-13T07:06:41.498Z,9.00
2018-11-13T07:09:15.271Z,9.00
2018-11-13T07:11:51.325Z,9.10
2018-11-13T07:14:25.077Z,9.00
2018-11-13T07:17:00.052Z,9.10
2018-11-13T07:19:33.803Z,9.10
2018-11-13T07:22:11.848Z,9.20
2018-11-13T07:24:45.636Z,9.20
2018-11-13T07:27:22.938Z,9.20
2018-11-13T07:29:56.849Z,9.30
2018-11-13T07:32:30.832Z,9.30
2018-11-13T07:35:05.085Z,9.30
2018-11-13T07:37:40.124Z,9.30
2018-11-13T07:40:13.864Z,9.30
2018-11-13T07:42:47.854Z,9.30
2018-11-13T07:45:21.639Z,9.30
2018-11-13T07:48:01.696Z,9.40
2018-11-13T07:50:35.644Z,9.40
2018-11-13T07:53:11.005Z,9.40
2018-11-13T07:55:44.783Z,9.40
2018-11-13T07:58:24.328Z,9.40
2018-11-13T08:00:58.263Z,9.40
2018-11-13T08:03:35.913Z,9.50
2018-11-13T08:06:09.923Z,9.50
2018-11-13T08:08:44.332Z,9.50
2018-11-13T08:11:18.116Z,9.50
2018-11-13T08:13:55.346Z,9.60
2018-11-13T08:16:29.179Z,9.60
2018-11-13T08:19:04.677Z,9.60
2018-11-13T08:21:38.446Z,9.70
2018-11-13T08:24:18.595Z,9.60
2018-11-13T08:26:52.400Z,9.60
2018-11-13T08:32:24.677Z,9.60
2018-11-13T08:34:58.476Z,9.60
2018-11-13T08:37:32.379Z,9.70
2018-11-13T08:40:08.052Z,9.70
2018-11-13T08:42:42.395Z,9.70
2018-11-13T08:45:16.536Z,9.70
2018-11-13T08:47:50.494Z,9.70
2018-11-13T08:50:24.365Z,9.80
2018-11-13T08:52:58.466Z,9.80
2018-11-13T08:55:32.260Z,9.80
2018-11-13T08:58:07.055Z,9.90
2018-11-13T09:00:40.848Z,9.90
2018-11-13T09:03:14.682Z,9.90
2018-11-13T09:05:48.490Z,9.90
2018-11-13T09:08:23.422Z,9.90
2018-11-13T09:10:57.646Z,9.90
2018-11-13T09:13:31.454Z,9.90
2018-11-13T09:16:05.579Z,9.90
2018-11-13T09:18:39.423Z,9.90
2018-11-13T09:21:13.239Z,10.00
2018-11-13T09:23:48.159Z,9.90
2018-11-13T09:26:22.071Z,9.90
2018-11-13T09:28:55.940Z,9.90
2018-11-13T09:31:29.948Z,9.90
2018-11-13T09:34:04.962Z,9.90
2018-11-13T09:36:38.805Z,9.90
2018-11-13T09:39:13.158Z,10.00
2018-11-13T09:41:47.254Z,10.00
2018-11-13T09:44:21.278Z,10.00
2018-11-13T09:46:55.125Z,10.00
2018-11-13T09:49:28.954Z,10.10
2018-11-13T09:52:02.747Z,10.10
2018-11-13T09:54:36.545Z,10.10
2018-11-13T09:57:10.351Z,10.20
2018-11-13T09:59:44.223Z,10.20
2018-11-13T10:02:18.327Z,10.30
2018-11-13T10:04:53.824Z,10.30
2018-11-13T10:07:27.179Z,10.30
2018-11-13T10:10:02.137Z,10.30
2018-11-13T10:12:36.058Z,10.30
2018-11-13T10:15:14.278Z,10.30
2018-11-13T10:17:48.171Z,10.30
2018-11-13T10:20:22.231Z,10.40
2018-11-13T10:22:57.002Z,10.40
2018-11-13T10:25:30.846Z,10.40
2018-11-13T10:28:04.701Z,10.50
2018-11-13T10:30:39.491Z,10.70
2018-11-13T10:33:13.310Z,10.80
2018-11-13T10:35:48.177Z,10.90
2018-11-13T10:38:22.000Z,11.00
2018-11-13T10:40:57.086Z,10.90
2018-11-13T10:43:31.017Z,11.00
2018-11-13T10:46:06.190Z,11.10
2018-11-13T10:48:40.054Z,11.00
2018-11-13T10:51:21.842Z,11.00
2018-11-13T10:53:55.738Z,11.00
2018-11-13T10:56:29.859Z,11.00
2018-11-13T10:59:03.878Z,10.90
2018-11-13T11:03:47.936Z,10.90
2018-11-13T11:06:21.693Z,10.80
2018-11-13T11:08:55.509Z,10.90
2018-11-13T11:11:29.431Z,10.90
2018-11-13T11:14:04.925Z,11.00
2018-11-13T11:16:38.741Z,11.00
2018-11-13T11:19:23.202Z,11.10
2018-11-13T11:21:57.138Z,11.30
2018-11-13T11:24:31.140Z,11.40
2018-11-13T11:27:04.923Z,11.50
2018-11-13T11:29:39.721Z,11.60
2018-11-13T11:32:13.501Z,11.70
2018-11-13T11:34:51.517Z,11.80
2018-11-13T11:37:25.885Z,11.90
2018-11-13T11:39:59.746Z,11.90
2018-11-13T11:42:33.609Z,11.80
2018-11-13T11:45:14.201Z,11.70
2018-11-13T11:47:47.984Z,11.70
2018-11-13T11:50:22.828Z,11.70
2018-11-13T11:52:56.671Z,11.90
2018-11-13T11:55:32.585Z,12.00
2018-11-13T11:58:06.922Z,12.20
2018-11-13T12:00:41.918Z,12.20
2018-11-13T12:03:16.393Z,12.10
2018-11-13T12:05:51.811Z,12.20
2018-11-13T12:08:25.634Z,12.10
2018-11-13T12:10:59.512Z,12.30
2018-11-13T12:13:33.408Z,12.30
2018-11-13T12:16:07.844Z,12.30
2018-11-13T12:18:42.197Z,12.20
2018-11-13T12:21:16.236Z,12.20
2018-11-13T12:23:50.192Z,12.10
2018-11-13T12:29:08.385Z,12.10
2018-11-13T12:31:43.244Z,11.90
2018-11-13T12:34:17.043Z,11.90
2018-11-13T12:36:55.750Z,11.90
2018-11-13T12:39:29.547Z,12.00
2018-11-13T12:42:07.813Z,12.00
2018-11-13T12:44:41.657Z,11.90
2018-11-13T12:47:16.501Z,11.90
2018-11-13T12:49:50.324Z,12.00
2018-11-13T12:52:25.154Z,12.00
2018-11-13T12:54:58.999Z,12.10
2018-11-13T13:06:31.942Z,12.20
2018-11-13T13:09:08.184Z,12.30
2018-11-13T13:17:40.266Z,12.60
2018-11-13T13:20:17.077Z,12.70
2018-11-13T13:23:10.064Z,12.60
2018-11-13T13:25:44.569Z,12.60
2018-11-13T13:34:20.908Z,12.90
2018-11-13T13:36:55.339Z,12.90
2018-11-13T13:45:40.090Z,12.60
2018-11-13T13:48:14.666Z,12.50
2018-11-13T13:51:03.359Z,12.30
2018-11-13T13:53:37.882Z,12.20
2018-11-13T13:56:26.365Z,12.00
2018-11-13T13:59:00.259Z,11.90
2018-11-13T14:01:39.376Z,11.90
2018-11-13T14:04:13.807Z,11.80
2018-11-13T14:06:55.560Z,11.80
2018-11-13T14:09:29.947Z,11.80
2018-11-13T14:12:25.892Z,11.80
2018-11-13T14:14:59.855Z,11.70
2018-11-13T14:17:34.449Z,11.70
2018-11-13T14:34:56.865Z,11.60
2018-11-13T14:37:30.730Z,11.50
2018-11-13T14:40:17.475Z,11.40
2018-11-13T14:42:51.448Z,11.30
2018-11-13T14:45:37.518Z,11.20
2018-11-13T14:48:11.951Z,11.10
2018-11-13T14:50:52.213Z,10.90
2018-11-13T14:53:26.179Z,10.70
2018-11-13T14:56:05.421Z,10.30
2018-11-13T14:58:39.349Z,10.20
2018-11-13T15:01:13.301Z,10.00
2018-11-13T15:03:47.158Z,9.90
2018-11-13T15:06:22.234Z,9.80
2018-11-13T15:08:56.095Z,9.80
2018-11-13T15:11:46.261Z,9.80
2018-11-13T15:14:21.861Z,9.80
2018-11-13T15:17:13.715Z,9.90
2018-11-13T15:19:47.786Z,9.90
2018-11-13T15:22:40.462Z,9.90
2018-11-13T15:25:15.859Z,9.90
2018-11-13T15:34:08.078Z,9.90
2018-11-13T15:36:42.176Z,9.80
2018-11-13T15:39:25.034Z,9.80
2018-11-13T15:41:59.043Z,9.80
2018-11-13T15:44:35.022Z,9.80
2018-11-13T15:47:09.019Z,9.80
2018-11-13T15:49:43.091Z,9.70
2018-11-13T15:52:17.153Z,9.70
2018-11-13T15:55:10.278Z,9.70
2018-11-13T15:57:44.784Z,9.70
2018-11-13T16:00:34.726Z,9.70
2018-11-13T16:09:09.468Z,9.70
2018-11-13T16:11:43.415Z,9.70
2018-11-13T16:14:21.646Z,9.80
2018-11-13T16:16:55.509Z,9.80
2018-11-13T16:22:28.313Z,9.70
2018-11-13T16:25:02.062Z,9.60
2018-11-13T16:27:37.030Z,9.60
2018-11-13T16:30:13.211Z,9.60
2018-11-13T16:32:47.913Z,9.50
2018-11-13T16:35:22.702Z,9.40
2018-11-13T16:37:58.138Z,9.40
2018-11-13T16:40:32.720Z,9.30
2018-11-13T16:43:07.209Z,9.30
2018-11-13T16:45:41.014Z,9.20
2018-11-13T16:48:15.646Z,9.20
2018-11-13T16:50:50.130Z,9.10
2018-11-13T16:53:25.801Z,9.10
2018-11-13T16:56:03.078Z,9.10
2018-11-13T16:58:37.893Z,9.10
2018-11-13T17:01:11.687Z,9.00
2018-11-13T17:03:47.816Z,9.00
2018-11-13T17:06:21.721Z,8.90
2018-11-13T17:08:56.439Z,9.00
2018-11-13T17:11:30.400Z,8.90
2018-11-13T17:14:08.958Z,8.90
2018-11-13T17:16:42.886Z,8.90
2018-11-13T17:19:21.656Z,8.90
2018-11-13T17:21:55.576Z,8.90
2018-11-13T17:24:31.429Z,8.90
2018-11-13T17:27:05.251Z,8.90
2018-11-13T17:29:40.271Z,8.90
2018-11-13T17:32:14.028Z,8.90
2018-11-13T17:34:52.672Z,8.90
2018-11-13T17:37:27.548Z,9.00
2018-11-13T17:40:00.576Z,8.90
2018-11-13T17:42:34.433Z,8.90
2018-11-13T17:45:13.991Z,8.90
2018-11-13T17:47:47.928Z,8.90
2018-11-13T17:50:30.532Z,9.00
2018-11-13T17:53:04.731Z,9.00
2018-11-13T17:55:39.152Z,9.00
2018-11-13T17:58:14.312Z,9.00
2018-11-13T18:00:59.631Z,9.00
2018-11-13T18:03:33.384Z,9.00
2018-11-13T18:06:23.241Z,9.00
2018-11-13T18:08:57.001Z,9.00
2018-11-13T18:14:30.300Z,8.90
2018-11-13T18:17:04.279Z,8.90
2018-11-13T18:19:38.276Z,9.00
2018-11-13T18:22:12.295Z,9.10
2018-11-13T18:24:46.158Z,9.10
2018-11-13T18:27:19.987Z,9.20
2018-11-13T18:29:54.909Z,9.20
2018-11-13T18:32:28.727Z,9.30
2018-11-13T18:35:02.720Z,9.40
2018-11-13T18:37:36.772Z,9.30
2018-11-13T18:40:13.132Z,9.30
2018-11-13T18:42:47.863Z,9.30
2018-11-13T18:45:24.180Z,9.20
2018-11-13T18:47:58.004Z,9.10
2018-11-13T18:50:33.119Z,9.00
2018-11-13T18:53:06.950Z,8.90
2018-11-13T18:55:40.814Z,8.90
2018-11-13T18:58:14.602Z,8.90
2018-11-13T19:00:49.392Z,8.90
2018-11-13T19:03:23.168Z,8.80
2018-11-13T19:05:57.042Z,8.90
2018-11-13T19:08:30.864Z,8.90
2018-11-13T19:11:06.233Z,8.90
2018-11-13T19:13:40.156Z,8.90
2018-11-13T19:16:13.959Z,9.00
2018-11-13T19:18:47.812Z,9.00
2018-11-13T19:21:25.695Z,9.10
2018-11-13T19:23:59.583Z,9.20
2018-11-13T19:26:35.539Z,9.20
2018-11-13T19:29:09.442Z,9.20
2018-11-13T19:31:43.596Z,9.30
2018-11-13T19:34:17.524Z,9.30
2018-11-13T19:36:51.899Z,9.20
2018-11-13T19:39:25.921Z,9.20
2018-11-13T19:42:00.072Z,9.10
2018-11-13T19:44:34.228Z,9.10
2018-11-13T19:47:09.272Z,9.20
2018-11-13T19:49:43.283Z,9.20
2018-11-13T19:52:17.450Z,9.20
2018-11-13T19:54:51.298Z,9.20
2018-11-13T19:57:25.945Z,9.20
2018-11-13T19:59:59.974Z,9.20
2018-11-13T20:02:35.899Z,9.20
2018-11-13T20:05:11.329Z,9.10
2018-11-13T20:07:45.742Z,9.20
2018-11-13T20:10:20.877Z,9.20
2018-11-13T20:12:55.831Z,9.10
2018-11-13T20:15:30.961Z,9.10
2018-11-13T20:18:05.054Z,9.10
2018-11-13T20:20:40.368Z,9.10
2018-11-13T20:23:14.137Z,9.10
2018-11-13T20:25:50.026Z,9.20
2018-11-13T20:28:23.807Z,9.20
2018-11-13T20:30:59.092Z,9.20
2018-11-13T20:33:33.008Z,9.30
2018-11-13T20:36:08.129Z,9.30
2018-11-13T20:38:41.917Z,9.30
2018-11-13T20:41:16.765Z,9.40
2018-11-13T20:43:50.553Z,9.40
2018-11-13T20:46:24.561Z,9.50
2018-11-13T20:48:58.305Z,9.50
2018-11-13T20:51:32.316Z,10.80
2018-11-13T20:54:06.266Z,9.70
2018-11-13T20:56:40.118Z,9.70
2018-11-13T20:59:13.869Z,9.80
2018-11-13T21:01:49.850Z,9.70
2018-11-13T21:04:23.765Z,9.70
2018-11-13T21:06:57.581Z,11.00
2018-11-13T21:09:31.354Z,9.60
2018-11-13T21:12:05.536Z,9.50
2018-11-13T21:14:39.475Z,9.60
2018-11-13T21:17:14.929Z,9.60
2018-11-13T21:19:49.189Z,9.70
2018-11-13T21:22:23.589Z,9.70
2018-11-13T21:24:57.444Z,9.70
2018-11-13T21:27:32.007Z,9.70
2018-11-13T21:30:09.430Z,9.80
2018-11-13T21:32:46.085Z,9.70
2018-11-13T21:35:19.925Z,9.80
2018-11-13T21:38:05.738Z,9.80
2018-11-13T21:40:39.476Z,9.70
2018-11-13T21:43:13.313Z,9.80
2018-11-13T21:45:47.100Z,9.80
2018-11-13T21:48:21.971Z,9.70
2018-11-13T21:50:55.748Z,9.60
2018-11-13T21:53:30.580Z,9.60
2018-11-13T21:56:04.768Z,9.50
2018-11-13T21:58:38.640Z,9.60
2018-11-13T22:01:12.441Z,9.60
2018-11-13T22:03:46.447Z,9.60
2018-11-13T22:06:20.392Z,9.60
2018-11-13T22:08:55.237Z,9.70
2018-11-13T22:11:28.997Z,9.70
2018-11-13T22:14:03.957Z,9.80
2018-11-13T22:16:37.864Z,9.80
2018-11-13T22:19:13.771Z,9.80
2018-11-13T22:21:47.521Z,9.80
2018-11-13T22:24:22.372Z,9.90
2018-11-13T22:26:56.116Z,9.80
2018-11-13T22:29:30.137Z,9.90
2018-11-13T22:32:04.049Z,9.90
2018-11-13T22:34:38.917Z,9.90
2018-11-13T22:37:12.675Z,9.90
2018-11-13T22:39:47.522Z,9.90
2018-11-13T22:42:21.449Z,10.00
2018-11-13T22:44:55.279Z,10.00
2018-11-13T22:47:29.103Z,10.00
2018-11-13T22:50:05.000Z,10.00
2018-11-13T22:52:38.958Z,10.00
2018-11-13T22:55:14.409Z,10.00
2018-11-13T22:57:49.067Z,10.00
2018-11-13T23:00:30.219Z,9.90
2018-11-13T23:03:04.180Z,9.90
2018-11-13T23:05:39.308Z,9.90
2018-11-13T23:08:14.424Z,9.90
2018-11-13T23:10:49.269Z,9.90
2018-11-13T23:13:23.381Z,9.90
2018-11-13T23:15:58.211Z,9.90
2018-11-13T23:18:31.970Z,9.90
2018-11-13T23:21:05.855Z,9.90
2018-11-13T23:23:39.618Z,9.90
2018-11-13T23:26:14.414Z,10.00
2018-11-13T23:28:48.138Z,9.90
2018-11-13T23:31:21.953Z,9.90
2018-11-13T23:33:56.761Z,9.90
2018-11-13T23:36:30.548Z,9.90
2018-11-13T23:39:05.856Z,9.90
2018-11-13T23:41:39.616Z,9.90
2018-11-13T23:44:13.463Z,9.90
2018-11-13T23:46:47.392Z,9.90
2018-11-13T23:49:22.232Z,9.80
2018-11-13T23:51:56.212Z,9.80
2018-11-13T23:54:34.986Z,9.80
2018-11-13T23:57:08.794Z,9.80
2018-11-13T23:59:42.631Z,9.80
